Main page
METAR-TAF:

METAR-TAF

Airports :

Komakuk Beach, Yukon, Canada

latitude: 69-37N, longitude: 140-12W, elevation: 13 m

Current weather observation

The report was made 46 minutes ago, at 07:00 UTC
Wind 14 kt from the West
Temperature -4°C
Humidity 100%
Pressure 1018 hPa

METAR: CWKM 210700Z AUTO 26014KT ////SM ////// M04/M04 A3007

Time: 00:46 (07:46 UTC)


TAF: missing

Weather observations and forecasts of more than 4000 airports (METAR and TAF reports).

The available stations are represented by yellow and red dots on the map.

Hover mouse over dot to see the name of the station.

Then click to see weather observations and forecasts.

To change the map : click on the green buttons with a black cross to zoom in, on the green button with a dash to zoom out, or on the green arrows for adjacent maps.


METAR-TAF: